UAE777 KORD-CYXU
Flight info
| Callsign | UAE777 |
|---|---|
| Flight time | 0h 39m |
| Altitude | 37000 |
| Route | MOBLE DCT ADIME DCT GERBS J146 IDEAS DCT BURDZ DCT KZLOV DCT GNTRY DCT FINGL |
| Aircraft | A333/H-SDE3GHIJ2J3J5M1RVWXY/LB2D1 |
Departure
| Time | 2026-04-25 02:05 |
|---|---|
| Airport | Chicago O'Hare International Airport (KORD) |
Arrival
| Time | 2026-04-25 02:44 |
|---|---|
| Airport | London International Airport (CYXU) |
| Time | Latitude | Longitude | Altitude | Speed | Heading |
|---|---|---|---|---|---|
| 2026-04-25 01:30 | 41.99178 | -87.91606 | 668 ft | 0 kts | 321° |
| 2026-04-25 01:49 | 41.99183 | -87.91612 | 668 ft | 6 kts | 321° |
| 2026-04-25 01:50 | 41.99205 | -87.91655 | 669 ft | 0 kts | 281° |
| 2026-04-25 01:50 | 41.99211 | -87.91684 | 669 ft | 8 kts | 268° |
| 2026-04-25 01:51 | 41.99192 | -87.91787 | 669 ft | 15 kts | 262° |
| 2026-04-25 01:51 | 41.99122 | -87.91885 | 671 ft | 15 kts | 180° |
| 2026-04-25 01:51 | 41.99073 | -87.91885 | 672 ft | 3 kts | 179° |
| 2026-04-25 01:51 | 41.99002 | -87.91842 | 672 ft | 16 kts | 120° |
| 2026-04-25 01:52 | 41.98995 | -87.91671 | 669 ft | 20 kts | 90° |
| 2026-04-25 01:52 | 41.98995 | -87.91326 | 663 ft | 51 kts | 90° |
| 2026-04-25 01:52 | 41.98995 | -87.90829 | 660 ft | 16 kts | 90° |
| 2026-04-25 01:52 | 41.98995 | -87.90781 | 660 ft | 11 kts | 90° |
| 2026-04-25 01:53 | 41.98994 | -87.90698 | 660 ft | 0 kts | 90° |
| 2026-04-25 01:53 | 41.98994 | -87.90682 | 660 ft | 10 kts | 90° |
| 2026-04-25 01:53 | 41.98995 | -87.90393 | 660 ft | 46 kts | 90° |
| 2026-04-25 01:54 | 41.98995 | -87.89867 | 660 ft | 64 kts | 91° |
| 2026-04-25 01:54 | 41.98986 | -87.89533 | 657 ft | 15 kts | 112° |
| 2026-04-25 01:54 | 41.98957 | -87.89504 | 657 ft | 2 kts | 162° |
| 2026-04-25 01:54 | 41.98951 | -87.89503 | 657 ft | 3 kts | 167° |
| 2026-04-25 01:55 | 41.98853 | -87.89495 | 657 ft | 22 kts | 180° |
| 2026-04-25 01:55 | 41.98652 | -87.89496 | 659 ft | 35 kts | 180° |
| 2026-04-25 01:55 | 41.98394 | -87.89495 | 660 ft | 40 kts | 180° |
| 2026-04-25 01:55 | 41.98157 | -87.89403 | 660 ft | 33 kts | 133° |
| 2026-04-25 01:56 | 41.97983 | -87.89454 | 660 ft | 29 kts | 229° |
| 2026-04-25 01:56 | 41.97784 | -87.89524 | 660 ft | 35 kts | 180° |
| 2026-04-25 01:56 | 41.97532 | -87.89532 | 660 ft | 22 kts | 187° |
| 2026-04-25 01:56 | 41.97516 | -87.89532 | 660 ft | 0 kts | 180° |
| 2026-04-25 01:57 | 41.97509 | -87.89532 | 660 ft | 4 kts | 175° |
| 2026-04-25 01:57 | 41.97462 | -87.89529 | 660 ft | 7 kts | 182° |
| 2026-04-25 01:57 | 41.97408 | -87.89539 | 660 ft | 8 kts | 201° |
| 2026-04-25 01:58 | 41.97341 | -87.89591 | 660 ft | 12 kts | 204° |
| 2026-04-25 01:58 | 41.97258 | -87.89571 | 660 ft | 12 kts | 148° |
| 2026-04-25 01:58 | 41.97198 | -87.89487 | 660 ft | 11 kts | 107° |
| 2026-04-25 01:58 | 41.97192 | -87.89376 | 660 ft | 12 kts | 90° |
| 2026-04-25 01:59 | 41.97194 | -87.89116 | 659 ft | 42 kts | 90° |
| 2026-04-25 01:59 | 41.97193 | -87.88754 | 659 ft | 35 kts | 90° |
| 2026-04-25 01:59 | 41.97190 | -87.88509 | 659 ft | 15 kts | 103° |
| 2026-04-25 01:59 | 41.97170 | -87.88325 | 659 ft | 17 kts | 89° |
| 2026-04-25 02:00 | 41.97171 | -87.88184 | 657 ft | 10 kts | 90° |
| 2026-04-25 02:00 | 41.97156 | -87.88068 | 656 ft | 11 kts | 130° |
| 2026-04-25 02:00 | 41.97129 | -87.88045 | 656 ft | 0 kts | 163° |
| 2026-04-25 02:01 | 41.97125 | -87.88043 | 656 ft | 0 kts | 163° |
| 2026-04-25 02:02 | 41.97109 | -87.88040 | 656 ft | 10 kts | 172° |
| 2026-04-25 02:02 | 41.96975 | -87.88042 | 657 ft | 23 kts | 191° |
| 2026-04-25 02:02 | 41.96895 | -87.88094 | 657 ft | 1 kts | 222° |
| 2026-04-25 02:02 | 41.96861 | -87.88134 | 658 ft | 0 kts | 221° |
| 2026-04-25 02:04 | 41.96824 | -87.88178 | 659 ft | 24 kts | 222° |
| 2026-04-25 02:04 | 41.96516 | -87.88545 | 660 ft | 98 kts | 221° |
| 2026-04-25 02:04 | 41.95821 | -87.89370 | 664 ft | 164 kts | 220° |
| 2026-04-25 02:04 | 41.94843 | -87.90531 | 763 ft | 207 kts | 218° |
| 2026-04-25 02:05 | 41.93651 | -87.91477 | 1733 ft | 202 kts | 187° |
| 2026-04-25 02:05 | 41.92319 | -87.91080 | 2881 ft | 212 kts | 150° |
| 2026-04-25 02:05 | 41.91365 | -87.89581 | 4114 ft | 227 kts | 122° |
| 2026-04-25 02:05 | 41.90892 | -87.87496 | 4928 ft | 258 kts | 104° |
| 2026-04-25 02:06 | 41.90810 | -87.84769 | 4880 ft | 324 kts | 92° |
| 2026-04-25 02:06 | 41.91084 | -87.78233 | 4902 ft | 345 kts | 90° |
| 2026-04-25 02:06 | 41.91348 | -87.73285 | 4901 ft | 358 kts | 90° |
| 2026-04-25 02:06 | 41.91587 | -87.68574 | 5648 ft | 368 kts | 89° |
| 2026-04-25 02:07 | 41.91826 | -87.63796 | 6833 ft | 367 kts | 89° |
| 2026-04-25 02:07 | 41.92402 | -87.52101 | 8706 ft | 375 kts | 88° |
| 2026-04-25 02:07 | 41.93398 | -87.31355 | 10769 ft | 389 kts | 88° |
| 2026-04-25 02:07 | 41.94407 | -87.09418 | 13006 ft | 399 kts | 87° |
| 2026-04-25 02:08 | 41.94850 | -86.86671 | 14898 ft | 409 kts | 92° |
| 2026-04-25 02:08 | 41.95319 | -86.63770 | 16327 ft | 418 kts | 89° |
| 2026-04-25 02:08 | 41.95284 | -86.47163 | 17523 ft | 425 kts | 86° |
| 2026-04-25 02:08 | 41.95381 | -86.43362 | 17889 ft | 429 kts | 87° |
| 2026-04-25 02:09 | 41.95444 | -86.39568 | 18448 ft | 429 kts | 88° |
| 2026-04-25 02:09 | 41.95493 | -86.35747 | 18823 ft | 433 kts | 88° |
| 2026-04-25 02:09 | 41.95535 | -86.31810 | 19474 ft | 452 kts | 89° |
| 2026-04-25 02:09 | 41.95605 | -86.24766 | 22217 ft | 455 kts | 89° |
| 2026-04-25 02:10 | 41.95542 | -86.20281 | 23424 ft | 465 kts | 96° |
| 2026-04-25 02:10 | 41.95138 | -86.15991 | 24331 ft | 478 kts | 97° |
| 2026-04-25 02:10 | 41.94735 | -86.11667 | 25577 ft | 482 kts | 97° |
| 2026-04-25 02:10 | 41.94325 | -86.07268 | 26594 ft | 491 kts | 97° |
| 2026-04-25 02:11 | 41.93905 | -86.02767 | 27543 ft | 500 kts | 97° |
| 2026-04-25 02:11 | 41.93483 | -85.98271 | 28508 ft | 506 kts | 97° |
| 2026-04-25 02:11 | 41.93048 | -85.93635 | 29407 ft | 512 kts | 97° |
| 2026-04-25 02:11 | 41.92614 | -85.89047 | 29990 ft | 504 kts | 97° |
| 2026-04-25 02:12 | 41.92175 | -85.84422 | 29825 ft | 513 kts | 97° |
| 2026-04-25 02:12 | 41.91730 | -85.79757 | 29951 ft | 514 kts | 97° |
| 2026-04-25 02:12 | 41.91283 | -85.75085 | 29983 ft | 518 kts | 97° |
| 2026-04-25 02:13 | 41.90371 | -85.65623 | 29963 ft | 524 kts | 97° |
| 2026-04-25 02:13 | 41.89450 | -85.56149 | 29960 ft | 522 kts | 97° |
| 2026-04-25 02:14 | 41.88290 | -85.44327 | 29966 ft | 527 kts | 97° |
| 2026-04-25 02:14 | 41.87286 | -85.34213 | 29966 ft | 530 kts | 98° |
| 2026-04-25 02:15 | 41.86269 | -85.24046 | 29953 ft | 529 kts | 98° |
| 2026-04-25 02:15 | 41.85247 | -85.13920 | 29958 ft | 531 kts | 98° |
| 2026-04-25 02:16 | 41.84210 | -85.03754 | 29968 ft | 530 kts | 98° |
| 2026-04-25 02:16 | 41.83168 | -84.93620 | 29975 ft | 532 kts | 98° |
| 2026-04-25 02:17 | 41.82112 | -84.83430 | 29983 ft | 530 kts | 98° |
| 2026-04-25 02:17 | 41.81589 | -84.78426 | 29588 ft | 520 kts | 98° |
| 2026-04-25 02:17 | 41.81074 | -84.73521 | 28453 ft | 519 kts | 98° |
| 2026-04-25 02:17 | 41.80557 | -84.68603 | 27597 ft | 513 kts | 98° |
| 2026-04-25 02:18 | 41.80042 | -84.63737 | 26894 ft | 505 kts | 98° |
| 2026-04-25 02:18 | 41.79533 | -84.58939 | 26171 ft | 499 kts | 98° |
| 2026-04-25 02:18 | 41.79027 | -84.54195 | 25429 ft | 494 kts | 98° |
| 2026-04-25 02:18 | 41.78525 | -84.49500 | 24722 ft | 489 kts | 98° |
| 2026-04-25 02:19 | 41.78026 | -84.44857 | 24058 ft | 483 kts | 98° |
| 2026-04-25 02:19 | 41.77739 | -84.40262 | 23940 ft | 483 kts | 89° |
| 2026-04-25 02:19 | 41.77741 | -84.35326 | 24085 ft | 485 kts | 89° |
| 2026-04-25 02:19 | 41.77723 | -84.29934 | 23921 ft | 485 kts | 90° |
| 2026-04-25 02:20 | 41.77698 | -84.24656 | 23970 ft | 480 kts | 90° |
| 2026-04-25 02:20 | 41.77671 | -84.19370 | 23989 ft | 482 kts | 90° |
| 2026-04-25 02:20 | 41.77641 | -84.14088 | 23981 ft | 483 kts | 90° |
| 2026-04-25 02:20 | 41.77609 | -84.08813 | 23980 ft | 483 kts | 90° |
| 2026-04-25 02:21 | 41.77575 | -84.03509 | 23981 ft | 483 kts | 90° |
| 2026-04-25 02:21 | 41.77537 | -83.98251 | 23982 ft | 484 kts | 90° |
| 2026-04-25 02:21 | 41.77497 | -83.92915 | 23983 ft | 484 kts | 90° |
| 2026-04-25 02:21 | 41.77455 | -83.87637 | 23976 ft | 484 kts | 90° |
| 2026-04-25 02:22 | 41.77411 | -83.82365 | 23988 ft | 483 kts | 90° |
| 2026-04-25 02:22 | 41.77363 | -83.77048 | 23968 ft | 483 kts | 90° |
| 2026-04-25 02:22 | 41.77314 | -83.71780 | 23980 ft | 482 kts | 90° |
| 2026-04-25 02:22 | 41.77263 | -83.66531 | 23981 ft | 483 kts | 90° |
| 2026-04-25 02:23 | 41.77209 | -83.61247 | 23985 ft | 482 kts | 90° |
| 2026-04-25 02:23 | 41.77224 | -83.55976 | 23971 ft | 482 kts | 84° |
| 2026-04-25 02:23 | 41.78065 | -83.50842 | 23964 ft | 479 kts | 68° |
| 2026-04-25 02:23 | 41.79539 | -83.45989 | 24004 ft | 479 kts | 67° |
| 2026-04-25 02:24 | 41.80918 | -83.41024 | 23984 ft | 480 kts | 68° |
| 2026-04-25 02:24 | 41.82256 | -83.36057 | 23977 ft | 480 kts | 68° |
| 2026-04-25 02:24 | 41.83577 | -83.31106 | 23983 ft | 481 kts | 69° |
| 2026-04-25 02:24 | 41.85099 | -83.26272 | 23959 ft | 478 kts | 59° |
| 2026-04-25 02:25 | 41.87092 | -83.21715 | 23973 ft | 475 kts | 58° |
| 2026-04-25 02:25 | 41.88985 | -83.17279 | 23448 ft | 468 kts | 59° |
| 2026-04-25 02:25 | 41.90880 | -83.12811 | 22424 ft | 468 kts | 59° |
| 2026-04-25 02:25 | 41.92769 | -83.08339 | 21709 ft | 461 kts | 59° |
| 2026-04-25 02:26 | 41.94594 | -83.04011 | 21044 ft | 456 kts | 59° |
| 2026-04-25 02:26 | 41.96426 | -82.99655 | 21023 ft | 454 kts | 59° |
| 2026-04-25 02:26 | 41.98269 | -82.95268 | 21114 ft | 459 kts | 59° |
| 2026-04-25 02:26 | 41.99501 | -82.92337 | 20983 ft | 458 kts | 59° |
| 2026-04-25 02:27 | 42.01951 | -82.86490 | 21029 ft | 455 kts | 59° |
| 2026-04-25 02:27 | 42.03772 | -82.82137 | 21031 ft | 456 kts | 59° |
| 2026-04-25 02:27 | 42.05591 | -82.77786 | 21019 ft | 455 kts | 59° |
| 2026-04-25 02:27 | 42.07427 | -82.73388 | 21018 ft | 455 kts | 58° |
| 2026-04-25 02:28 | 42.09411 | -82.69137 | 21016 ft | 454 kts | 56° |
| 2026-04-25 02:28 | 42.11393 | -82.64915 | 21030 ft | 455 kts | 56° |
| 2026-04-25 02:28 | 42.13388 | -82.60649 | 21022 ft | 455 kts | 56° |
| 2026-04-25 02:28 | 42.15357 | -82.56427 | 21023 ft | 455 kts | 56° |
| 2026-04-25 02:29 | 42.17352 | -82.52140 | 21024 ft | 455 kts | 56° |
| 2026-04-25 02:29 | 42.19314 | -82.47920 | 21022 ft | 455 kts | 56° |
| 2026-04-25 02:29 | 42.21302 | -82.43638 | 21025 ft | 455 kts | 56° |
| 2026-04-25 02:29 | 42.23271 | -82.39388 | 21023 ft | 455 kts | 56° |
| 2026-04-25 02:30 | 42.25234 | -82.35149 | 21027 ft | 455 kts | 56° |
| 2026-04-25 02:30 | 42.27208 | -82.30881 | 21029 ft | 455 kts | 56° |
| 2026-04-25 02:30 | 42.29174 | -82.26619 | 21027 ft | 455 kts | 56° |
| 2026-04-25 02:30 | 42.31149 | -82.22333 | 20903 ft | 446 kts | 56° |
| 2026-04-25 02:31 | 42.33050 | -82.18203 | 19988 ft | 447 kts | 56° |
| 2026-04-25 02:31 | 42.34981 | -82.14005 | 19189 ft | 443 kts | 57° |
| 2026-04-25 02:31 | 42.36872 | -82.09883 | 18551 ft | 436 kts | 56° |
| 2026-04-25 02:31 | 42.38747 | -82.05794 | 17867 ft | 431 kts | 57° |
| 2026-04-25 02:32 | 42.44488 | -81.93227 | 16255 ft | 423 kts | 57° |
| 2026-04-25 02:32 | 42.50551 | -81.79903 | 15611 ft | 407 kts | 57° |
| 2026-04-25 02:32 | 42.52354 | -81.76306 | 14865 ft | 404 kts | 51° |
| 2026-04-25 02:32 | 42.54246 | -81.72807 | 14181 ft | 400 kts | 52° |
| 2026-04-25 02:33 | 42.56112 | -81.69312 | 13619 ft | 394 kts | 52° |
| 2026-04-25 02:33 | 42.57935 | -81.65887 | 12947 ft | 391 kts | 53° |
| 2026-04-25 02:33 | 42.67305 | -81.48168 | 9677 ft | 386 kts | 53° |
| 2026-04-25 02:33 | 42.69677 | -81.43675 | 9018 ft | 380 kts | 52° |
| 2026-04-25 02:34 | 42.71572 | -81.40073 | 8247 ft | 379 kts | 52° |
| 2026-04-25 02:34 | 42.73465 | -81.36475 | 7989 ft | 377 kts | 52° |
| 2026-04-25 02:34 | 42.75357 | -81.32875 | 8133 ft | 379 kts | 53° |
| 2026-04-25 02:34 | 42.77256 | -81.29255 | 8009 ft | 377 kts | 53° |
| 2026-04-25 02:35 | 42.79108 | -81.25706 | 8035 ft | 376 kts | 53° |
| 2026-04-25 02:35 | 42.80965 | -81.22157 | 7689 ft | 369 kts | 53° |
| 2026-04-25 02:35 | 42.83039 | -81.18910 | 6734 ft | 369 kts | 37° |
| 2026-04-25 02:35 | 42.85777 | -81.16859 | 6059 ft | 359 kts | 15° |
| 2026-04-25 02:36 | 42.88742 | -81.16226 | 5494 ft | 348 kts | 359° |
| 2026-04-25 02:36 | 42.91637 | -81.16896 | 4964 ft | 344 kts | 337° |
| 2026-04-25 02:36 | 42.93362 | -81.18211 | 5038 ft | 340 kts | 323° |
| 2026-04-25 02:36 | 42.96381 | -81.21561 | 5072 ft | 344 kts | 315° |
| 2026-04-25 02:37 | 42.98557 | -81.24328 | 5037 ft | 342 kts | 316° |
| 2026-04-25 02:37 | 43.00692 | -81.27020 | 5050 ft | 341 kts | 316° |
| 2026-04-25 02:37 | 43.02924 | -81.29175 | 5069 ft | 341 kts | 57° |
| 2026-04-25 02:37 | 43.04538 | -81.25734 | 5343 ft | 361 kts | 49° |
| 2026-04-25 02:38 | 43.06777 | -81.22767 | 5066 ft | 364 kts | 35° |
| 2026-04-25 02:38 | 43.09498 | -81.20894 | 4915 ft | 350 kts | 13° |
| 2026-04-25 02:38 | 43.12374 | -81.20606 | 5145 ft | 324 kts | 353° |
| 2026-04-25 02:38 | 43.15101 | -81.21021 | 5013 ft | 311 kts | 352° |
| 2026-04-25 02:39 | 43.17666 | -81.21416 | 5031 ft | 295 kts | 352° |
| 2026-04-25 02:39 | 43.20142 | -81.21794 | 5034 ft | 282 kts | 352° |
| 2026-04-25 02:39 | 43.22499 | -81.22150 | 5029 ft | 270 kts | 352° |
| 2026-04-25 02:39 | 43.24757 | -81.22653 | 5030 ft | 265 kts | 338° |
| 2026-04-25 02:40 | 43.26624 | -81.24339 | 5066 ft | 260 kts | 310° |
| 2026-04-25 02:40 | 43.27645 | -81.26997 | 5063 ft | 259 kts | 282° |
| 2026-04-25 02:40 | 43.27596 | -81.30029 | 5061 ft | 261 kts | 255° |
| 2026-04-25 02:40 | 43.26467 | -81.32677 | 5062 ft | 265 kts | 227° |
| 2026-04-25 02:41 | 43.24514 | -81.34303 | 5059 ft | 271 kts | 199° |
| 2026-04-25 02:41 | 43.22184 | -81.34497 | 5057 ft | 277 kts | 172° |
| 2026-04-25 02:41 | 43.19993 | -81.33182 | 5067 ft | 282 kts | 145° |
| 2026-04-25 02:41 | 43.18017 | -81.31244 | 5069 ft | 282 kts | 148° |
| 2026-04-25 02:42 | 43.16046 | -81.29445 | 4898 ft | 267 kts | 147° |
| 2026-04-25 02:42 | 43.14298 | -81.27652 | 4499 ft | 243 kts | 142° |
| 2026-04-25 02:42 | 43.12755 | -81.25888 | 3778 ft | 227 kts | 141° |
| 2026-04-25 02:42 | 43.11303 | -81.24258 | 3036 ft | 215 kts | 141° |
| 2026-04-25 02:43 | 43.09917 | -81.22684 | 2336 ft | 206 kts | 141° |
| 2026-04-25 02:43 | 43.08582 | -81.21191 | 1929 ft | 191 kts | 140° |
| 2026-04-25 02:43 | 43.07391 | -81.19815 | 1616 ft | 176 kts | 139° |
| 2026-04-25 02:43 | 43.06306 | -81.18511 | 1374 ft | 153 kts | 139° |
| 2026-04-25 02:44 | 43.05349 | -81.17358 | 1179 ft | 148 kts | 139° |
| 2026-04-25 02:44 | 43.04405 | -81.16213 | 996 ft | 146 kts | 140° |
| 2026-04-25 02:44 | 43.03475 | -81.15099 | 915 ft | 125 kts | 139° |
| 2026-04-25 02:44 | 43.02962 | -81.14487 | 911 ft | 49 kts | 139° |
| 2026-04-25 02:45 | 43.02627 | -81.14085 | 916 ft | 52 kts | 139° |
| 2026-04-25 02:45 | 43.02468 | -81.13896 | 920 ft | 0 kts | 139° |
| 2026-04-25 02:45 | 43.02443 | -81.13871 | 920 ft | 11 kts | 150° |
| 2026-04-25 02:45 | 43.02390 | -81.13866 | 921 ft | 5 kts | 203° |
| 2026-04-25 02:46 | 43.02367 | -81.13891 | 920 ft | 0 kts | 222° |
| 2026-04-25 02:46 | 43.02359 | -81.13902 | 920 ft | 7 kts | 228° |
| 2026-04-25 02:47 | 43.02331 | -81.14017 | 918 ft | 11 kts | 293° |
| 2026-04-25 02:47 | 43.02413 | -81.14140 | 915 ft | 18 kts | 319° |
| 2026-04-25 02:47 | 43.02566 | -81.14324 | 912 ft | 27 kts | 319° |
| 2026-04-25 02:47 | 43.02713 | -81.14501 | 908 ft | 16 kts | 319° |
| 2026-04-25 02:48 | 43.02805 | -81.14610 | 908 ft | 9 kts | 319° |
| 2026-04-25 02:48 | 43.02854 | -81.14670 | 908 ft | 7 kts | 319° |
| 2026-04-25 02:48 | 43.02905 | -81.14731 | 908 ft | 7 kts | 318° |
| 2026-04-25 02:48 | 43.02954 | -81.14791 | 908 ft | 7 kts | 319° |
| 2026-04-25 02:49 | 43.02996 | -81.14840 | 908 ft | 0 kts | 319° |
| 2026-04-25 02:49 | 43.02999 | -81.14844 | 908 ft | 0 kts | 319° |
| 2026-04-25 02:49 | 43.03002 | -81.14848 | 908 ft | 0 kts | 315° |
| 2026-04-25 02:49 | 43.03005 | -81.14852 | 908 ft | 1 kts | 311° |
| 2026-04-25 02:50 | 43.03016 | -81.14890 | 908 ft | 4 kts | 272° |
| 2026-04-25 02:50 | 43.03007 | -81.14919 | 908 ft | 0 kts | 224° |
| 2026-04-25 02:50 | 43.02994 | -81.14919 | 908 ft | 0 kts | 175° |
| 2026-04-25 02:50 | 43.02977 | -81.14917 | 908 ft | 3 kts | 181° |
| 2026-04-25 02:51 | 43.02955 | -81.14919 | 908 ft | 0 kts | 183° |
| 2026-04-25 02:51 | 43.02953 | -81.14919 | 908 ft | 0 kts | 184° |
| 2026-04-25 02:52 | 43.02968 | -81.14917 | 908 ft | 1 kts | 184° |
| 2026-04-25 02:52 | 43.02964 | -81.14917 | 908 ft | 0 kts | 184° |